Pagrindinis puslapis
METAR-TAF:

METAR-TAF

Oro uostai :

Menchengladbachas, Vokietija

platuma: 51-13-49N, ilguma: 006-30-16E, Aukštis: 38 m

Dabartinis oras

Ataskaita buvo paskelbta 26 minutes, ne 21:20 UTC
Vėjas 8 kt iš Pietų, svyruoja nuo Pietryčių ir Pietvakarių
Temperatūra 12°C
Drėgmė 71%
Slėgis 1002 hPa
Matomumas 10 km arba daugiau

METAR: EDLN 272120Z AUTO 18008KT 140V220 9999 // OVC030/// 12/07 Q1002

Laikas: 22:46 (21:46 UTC)

Prognozė

Ataskaita buvo paskelbta 4 valandos ir 46 minutes, ne 17:00 UTC
Prognozė galioja nuo 27 metu 18 UTC su 28 metu 03 UTC
Vėjas 9 kt iš Pietų
Matomumas 10 km arba daugiau
Su prošvaistėmis ne aukštis 2000 ft
Laikinai
nuo 27 metu 20 UTC su 28 metu 03 UTC
lietus

TAF: EDLN 271700Z 2718/2803 19009KT 9999 BKN020 TEMPO 2720/2803 RA

Orai ataskaitas ir orų prognozės (METAR, TAF).

turimą stotys yra geltonos ir raudonos taškus žemėlapyje.

Perkelti pele per norėdami pamatyti stoties vardą.

Tada spustelėkite, norėdami matyti oro stebėjimo ir prognozės.

Norėdami pakeisti žemėlapį: spustelėkite ant žalios mygtukų su juodo kryžiaus žemyn,; žalią mygtuką su brūkšneliu, jei norite nutolinti; arba žalių rodyklių gretimoms žemėlapius.


METAR-TAF: